createdAt,value
2023-03-08T00:02:56.701Z,71.17
2023-03-08T00:07:01.069Z,70.38
2023-03-08T00:11:06.813Z,69.55
2023-03-08T00:15:10.282Z,69.00
2023-03-08T00:19:13.357Z,68.14
2023-03-08T00:23:17.717Z,67.51
2023-03-08T00:27:20.772Z,66.96
2023-03-08T00:31:23.854Z,66.32
2023-03-08T00:35:29.863Z,65.64
2023-03-08T00:39:34.816Z,65.05
2023-03-08T00:43:38.170Z,63.72
2023-03-08T00:47:41.300Z,61.97
2023-03-08T00:51:44.413Z,61.52
2023-03-08T00:55:53.686Z,61.13
2023-03-08T00:59:57.016Z,60.45
2023-03-08T01:04:01.311Z,59.28
2023-03-08T01:08:05.627Z,58.53
2023-03-08T01:12:10.209Z,57.45
2023-03-08T01:16:18.024Z,56.36
2023-03-08T01:20:21.131Z,56.79
2023-03-08T01:24:24.192Z,56.98
2023-03-08T01:28:29.002Z,56.26
2023-03-08T01:32:32.220Z,56.13
2023-03-08T01:36:35.324Z,56.27
2023-03-08T01:40:38.953Z,55.97
2023-03-08T01:44:55.377Z,56.08
2023-03-08T01:49:05.294Z,56.34
2023-03-08T01:53:08.794Z,55.90
2023-03-08T01:57:18.923Z,55.66
2023-03-08T02:01:23.858Z,55.86
2023-03-08T02:05:29.374Z,55.80
2023-03-08T02:09:39.580Z,56.23
2023-03-08T02:13:43.978Z,55.97
2023-03-08T02:17:49.542Z,55.84
2023-03-08T02:21:52.835Z,55.53
2023-03-08T02:26:00.432Z,55.88
2023-03-08T02:30:03.995Z,56.25
2023-03-08T02:34:08.196Z,56.03
2023-03-08T02:38:12.375Z,56.04
2023-03-08T02:42:16.980Z,56.17
2023-03-08T02:46:20.071Z,56.45
2023-03-08T02:50:23.146Z,56.77
2023-03-08T02:54:26.243Z,56.76
2023-03-08T02:58:30.640Z,56.78
2023-03-08T03:02:34.021Z,56.55
2023-03-08T03:06:37.345Z,56.84
2023-03-08T03:10:41.877Z,56.92
2023-03-08T03:14:46.386Z,56.76
2023-03-08T03:18:49.942Z,56.75
2023-03-08T03:22:53.149Z,56.72
2023-03-08T03:27:01.638Z,56.92
2023-03-08T03:31:13.261Z,56.67
2023-03-08T03:35:16.830Z,56.82
2023-03-08T03:39:20.356Z,56.76
2023-03-08T03:43:25.293Z,56.62
2023-03-08T03:47:29.987Z,56.21
2023-03-08T03:51:36.499Z,56.21
2023-03-08T03:55:49.661Z,56.00
2023-03-08T03:59:52.961Z,55.76
2023-03-08T04:04:00.272Z,55.00
2023-03-08T04:08:05.704Z,54.99
2023-03-08T04:12:11.118Z,54.92
2023-03-08T04:16:17.991Z,54.83
2023-03-08T04:20:22.705Z,53.98
2023-03-08T04:24:31.870Z,53.69
2023-03-08T04:28:39.178Z,53.62
2023-03-08T04:32:42.719Z,53.36
2023-03-08T04:36:47.637Z,53.42
2023-03-08T04:41:06.530Z,53.50
2023-03-08T04:45:19.065Z,53.41
2023-03-08T04:49:22.282Z,53.33
2023-03-08T04:53:32.686Z,53.31
2023-03-08T04:57:36.672Z,53.11
2023-03-08T05:01:40.557Z,53.09
2023-03-08T05:05:48.166Z,53.50
2023-03-08T05:09:53.635Z,53.36
2023-03-08T05:13:58.157Z,53.35
2023-03-08T05:18:02.305Z,53.51
2023-03-08T05:22:06.846Z,53.39
2023-03-08T05:26:18.307Z,53.56
2023-03-08T05:30:22.177Z,53.83
2023-03-08T05:34:30.572Z,54.00
2023-03-08T05:38:35.615Z,54.02
2023-03-08T05:42:43.794Z,54.01
2023-03-08T05:46:50.811Z,54.20
2023-03-08T05:50:58.483Z,54.43
2023-03-08T05:55:03.695Z,54.61
2023-03-08T05:59:08.478Z,54.59
2023-03-08T06:03:11.722Z,54.72
2023-03-08T06:07:19.014Z,54.70
2023-03-08T06:11:27.772Z,54.81
2023-03-08T06:15:35.431Z,54.60
2023-03-08T06:19:39.293Z,54.41
2023-03-08T06:23:43.273Z,54.71
2023-03-08T06:27:46.474Z,54.49
2023-03-08T06:32:01.656Z,54.61
2023-03-08T06:36:08.125Z,54.45
2023-03-08T06:40:13.983Z,53.97
2023-03-08T06:44:18.252Z,54.14
2023-03-08T06:48:22.954Z,53.48
2023-03-08T06:52:27.675Z,53.39
2023-03-08T06:56:31.247Z,53.42
2023-03-08T07:00:34.984Z,53.23
2023-03-08T07:04:39.504Z,52.94
2023-03-08T07:08:43.277Z,52.70
2023-03-08T07:12:48.565Z,52.71
2023-03-08T07:16:51.726Z,52.19
2023-03-08T07:20:57.253Z,52.54
2023-03-08T07:25:00.706Z,52.42
2023-03-08T07:29:03.973Z,52.09
2023-03-08T07:33:07.050Z,52.14
2023-03-08T07:37:14.084Z,51.16
2023-03-08T07:41:18.016Z,51.14
2023-03-08T07:45:20.978Z,51.13
2023-03-08T07:49:24.805Z,50.58
2023-03-08T07:53:29.174Z,50.43
2023-03-08T07:57:32.236Z,50.13
2023-03-08T08:01:35.472Z,49.62
2023-03-08T08:05:38.617Z,49.95
2023-03-08T08:09:43.395Z,49.37
2023-03-08T08:13:47.181Z,49.68
2023-03-08T08:17:50.158Z,49.42
2023-03-08T08:21:53.290Z,48.96
2023-03-08T08:25:57.977Z,48.55
2023-03-08T08:30:01.947Z,48.12
2023-03-08T08:34:04.976Z,47.46
2023-03-08T08:38:08.790Z,45.63
2023-03-08T08:42:13.144Z,45.92
2023-03-08T08:46:17.354Z,47.41
2023-03-08T08:50:20.376Z,46.91
2023-03-08T08:54:23.845Z,46.84
2023-03-08T08:58:28.349Z,46.05
2023-03-08T09:02:31.487Z,45.83
2023-03-08T09:06:34.596Z,45.43
2023-03-08T09:10:39.718Z,45.48
2023-03-08T09:14:44.150Z,45.29
2023-03-08T09:18:47.646Z,44.54
2023-03-08T09:22:52.102Z,44.82
2023-03-08T09:26:55.415Z,44.72
2023-03-08T09:30:59.884Z,45.28
2023-03-08T09:35:05.258Z,44.86
2023-03-08T09:39:09.022Z,45.15
2023-03-08T09:43:22.363Z,44.73
2023-03-08T09:47:47.874Z,44.14
2023-03-08T09:51:58.398Z,44.79
2023-03-08T09:56:05.287Z,44.37
2023-03-08T10:00:18.349Z,44.57
2023-03-08T10:04:40.713Z,44.08
2023-03-08T10:08:50.399Z,44.46
2023-03-08T10:13:15.175Z,44.62
2023-03-08T10:17:21.918Z,43.72
2023-03-08T10:21:27.942Z,44.01
2023-03-08T10:25:34.145Z,44.11
2023-03-08T10:29:37.171Z,43.60
2023-03-08T10:33:40.284Z,43.50
2023-03-08T10:37:50.972Z,43.37
2023-03-08T10:41:57.959Z,43.49
2023-03-08T10:46:04.576Z,43.52
2023-03-08T10:50:14.851Z,43.66
2023-03-08T10:54:19.203Z,43.54
2023-03-08T10:58:30.315Z,43.50
2023-03-08T11:02:33.347Z,43.93
2023-03-08T11:06:37.069Z,43.78
2023-03-08T11:10:41.604Z,44.12
2023-03-08T11:14:44.891Z,44.43
2023-03-08T11:18:59.037Z,44.58
2023-03-08T11:23:17.024Z,44.79
2023-03-08T11:27:33.346Z,44.66
2023-03-08T11:31:43.757Z,44.75
2023-03-08T11:35:53.193Z,44.82
2023-03-08T11:40:05.696Z,45.11
2023-03-08T11:44:27.168Z,45.69
2023-03-08T11:48:56.689Z,46.15
2023-03-08T11:53:13.733Z,46.16
2023-03-08T11:57:18.878Z,46.78
2023-03-08T12:01:26.829Z,46.84
2023-03-08T12:05:31.889Z,47.77
2023-03-08T12:09:40.298Z,47.57
2023-03-08T12:13:46.597Z,47.60
2023-03-08T12:17:55.344Z,47.87
2023-03-08T12:22:08.602Z,47.81
2023-03-08T12:26:18.674Z,47.60
2023-03-08T12:30:34.531Z,47.35
2023-03-08T12:34:41.397Z,47.70
2023-03-08T12:38:48.958Z,48.22
2023-03-08T12:42:52.179Z,47.98
2023-03-08T12:47:03.497Z,48.46
2023-03-08T12:51:21.564Z,49.27
2023-03-08T12:55:31.656Z,49.28
2023-03-08T12:59:37.788Z,49.65
2023-03-08T13:03:42.973Z,49.19
2023-03-08T13:08:01.538Z,49.73
2023-03-08T13:12:21.770Z,49.60
2023-03-08T13:16:34.156Z,50.00
2023-03-08T13:21:15.884Z,50.42
2023-03-08T13:25:31.860Z,50.18
2023-03-08T13:29:35.984Z,50.99
2023-03-08T13:33:42.245Z,50.25
2023-03-08T13:37:53.351Z,50.58
2023-03-08T13:42:09.440Z,50.71
2023-03-08T13:46:17.198Z,50.64
2023-03-08T13:50:24.329Z,50.91
2023-03-08T13:54:32.016Z,51.08
2023-03-08T13:58:39.257Z,51.10
2023-03-08T14:02:47.684Z,51.12
2023-03-08T14:06:53.019Z,50.88
2023-03-08T14:11:00.977Z,51.11
2023-03-08T14:15:08.316Z,50.77
2023-03-08T14:19:20.616Z,50.87
2023-03-08T14:23:26.064Z,51.23
2023-03-08T14:27:37.393Z,51.16
2023-03-08T14:31:53.641Z,51.01
2023-03-08T14:36:00.163Z,51.59
2023-03-08T14:40:40.963Z,51.70
2023-03-08T14:44:44.245Z,51.65
2023-03-08T14:48:58.656Z,51.88
2023-03-08T14:53:04.291Z,51.96
2023-03-08T14:57:18.196Z,52.66
2023-03-08T15:01:26.427Z,52.63
2023-03-08T15:05:31.279Z,52.50
2023-03-08T15:09:35.856Z,52.89
2023-03-08T15:13:38.813Z,52.81
2023-03-08T15:17:41.974Z,52.93
2023-03-08T15:21:47.619Z,53.00
2023-03-08T15:25:51.204Z,52.67
2023-03-08T15:29:54.249Z,53.12
2023-03-08T15:33:57.787Z,53.40
2023-03-08T15:38:02.186Z,53.21
2023-03-08T15:42:05.647Z,53.30
2023-03-08T15:46:11.474Z,53.53
2023-03-08T15:50:16.861Z,53.50
2023-03-08T15:54:21.278Z,53.70
2023-03-08T15:58:25.602Z,53.67
2023-03-08T16:02:28.613Z,53.62
2023-03-08T16:06:31.782Z,53.65
2023-03-08T16:10:40.504Z,53.53
2023-03-08T16:14:48.465Z,53.63
2023-03-08T16:18:51.629Z,53.88
2023-03-08T16:22:55.647Z,53.61
2023-03-08T16:27:00.492Z,53.48
2023-03-08T16:31:03.959Z,53.45
2023-03-08T16:35:07.635Z,53.72
2023-03-08T16:39:10.870Z,53.82
2023-03-08T16:43:15.999Z,53.54
2023-03-08T16:47:19.877Z,53.26
2023-03-08T16:51:24.919Z,53.34
2023-03-08T16:55:28.020Z,53.65
2023-03-08T16:59:32.962Z,53.71
2023-03-08T17:03:38.370Z,54.08
2023-03-08T17:07:41.555Z,54.16
2023-03-08T17:11:45.705Z,54.35
2023-03-08T17:15:50.991Z,54.32
2023-03-08T17:19:54.804Z,54.47
2023-03-08T17:24:01.220Z,54.38
2023-03-08T17:28:05.401Z,54.46
2023-03-08T17:32:09.881Z,54.49
2023-03-08T17:36:14.384Z,54.50
2023-03-08T17:40:17.609Z,54.21
2023-03-08T17:44:20.666Z,54.21
2023-03-08T17:48:25.140Z,54.73
2023-03-08T17:52:28.200Z,54.48
2023-03-08T17:56:34.273Z,54.44
2023-03-08T18:00:37.825Z,54.44
2023-03-08T18:04:45.313Z,54.77
2023-03-08T18:08:48.492Z,54.87
2023-03-08T18:12:51.715Z,54.59
2023-03-08T18:16:54.846Z,54.59
2023-03-08T18:21:12.063Z,54.52
2023-03-08T18:25:16.104Z,54.49
2023-03-08T18:29:19.367Z,54.18
2023-03-08T18:33:23.168Z,54.15
2023-03-08T18:37:27.594Z,53.90
2023-03-08T18:41:30.677Z,54.22
2023-03-08T18:45:33.688Z,54.16
2023-03-08T18:49:37.295Z,54.19
2023-03-08T18:53:41.935Z,54.15
2023-03-08T18:57:45.004Z,54.80
2023-03-08T19:01:49.941Z,54.50
2023-03-08T19:05:53.168Z,54.95
2023-03-08T19:09:59.879Z,54.87
2023-03-08T19:14:03.508Z,54.86
2023-03-08T19:18:07.932Z,54.95
2023-03-08T19:22:11.946Z,54.83
2023-03-08T19:26:38.627Z,54.85
2023-03-08T19:30:41.997Z,55.23
2023-03-08T19:34:45.666Z,55.33
2023-03-08T19:38:48.768Z,55.18
2023-03-08T19:42:53.966Z,55.32
2023-03-08T19:46:57.368Z,55.19
2023-03-08T19:51:00.407Z,55.27
2023-03-08T19:55:05.140Z,55.27
2023-03-08T19:59:10.126Z,54.64
2023-03-08T20:03:14.479Z,54.84
2023-03-08T20:07:17.498Z,54.50
2023-03-08T20:11:20.905Z,54.73
2023-03-08T20:15:25.541Z,54.80
2023-03-08T20:19:31.830Z,54.74
2023-03-08T20:23:35.217Z,55.05
2023-03-08T20:27:38.476Z,54.81
2023-03-08T20:31:43.222Z,54.49
2023-03-08T20:35:47.889Z,54.59
2023-03-08T20:39:52.346Z,54.56
2023-03-08T20:43:56.249Z,54.27
2023-03-08T20:48:01.149Z,54.10
2023-03-08T20:52:04.548Z,54.15
2023-03-08T20:56:09.440Z,54.50
2023-03-08T21:00:14.194Z,54.86
2023-03-08T21:04:18.686Z,54.44
2023-03-08T21:08:24.371Z,54.58
2023-03-08T21:12:27.377Z,54.25
2023-03-08T21:16:31.451Z,54.39
2023-03-08T21:20:38.604Z,54.09
2023-03-08T21:24:41.674Z,54.16
2023-03-08T21:28:44.679Z,54.09
2023-03-08T21:32:47.787Z,54.13
2023-03-08T21:36:52.325Z,54.28
2023-03-08T21:40:55.519Z,54.23
2023-03-08T21:44:58.457Z,54.07
2023-03-08T21:49:01.553Z,53.95
2023-03-08T21:53:06.125Z,54.27
2023-03-08T21:57:09.207Z,54.16
2023-03-08T22:01:20.025Z,54.14
2023-03-08T22:05:23.545Z,54.22
2023-03-08T22:09:29.254Z,54.45
2023-03-08T22:13:32.947Z,54.59
2023-03-08T22:17:35.957Z,54.72
2023-03-08T22:21:39.097Z,54.35
2023-03-08T22:25:43.835Z,54.39
2023-03-08T22:29:47.364Z,54.00
2023-03-08T22:33:50.633Z,54.81
2023-03-08T22:37:53.719Z,54.93
2023-03-08T22:41:58.915Z,54.71
2023-03-08T22:46:07.969Z,54.69
2023-03-08T22:50:12.808Z,54.56
2023-03-08T22:54:17.894Z,54.47
2023-03-08T22:58:22.525Z,54.52
2023-03-08T23:02:26.565Z,54.48
2023-03-08T23:06:31.386Z,54.67
2023-03-08T23:10:34.509Z,54.90
2023-03-08T23:14:38.897Z,54.79
2023-03-08T23:18:42.245Z,54.53
2023-03-08T23:22:45.286Z,54.59
2023-03-08T23:26:48.458Z,54.57
2023-03-08T23:30:52.808Z,54.49
2023-03-08T23:34:55.953Z,54.49
2023-03-08T23:39:01.792Z,54.39
2023-03-08T23:43:05.170Z,54.61
2023-03-08T23:47:09.774Z,54.90
2023-03-08T23:51:17.100Z,55.18
2023-03-08T23:55:20.169Z,55.59
2023-03-08T23:59:24.500Z,55.41
